createdAt,value
2018-06-12T00:01:54.277Z,12.97
2018-06-12T00:04:29.400Z,14.10
2018-06-12T00:07:03.666Z,15.10
2018-06-12T00:09:38.660Z,12.80
2018-06-12T00:12:13.679Z,15.70
2018-06-12T00:14:48.304Z,14.67
2018-06-12T00:17:22.493Z,15.60
2018-06-12T00:19:57.493Z,15.60
2018-06-12T00:22:32.680Z,15.63
2018-06-12T00:25:08.149Z,14.73
2018-06-12T00:27:42.869Z,14.33
2018-06-12T00:30:17.973Z,14.97
2018-06-12T00:32:52.363Z,15.57
2018-06-12T00:35:27.476Z,15.00
2018-06-12T00:38:02.192Z,14.97
2018-06-12T00:40:36.787Z,15.10
2018-06-12T00:43:12.157Z,13.87
2018-06-12T00:45:47.328Z,14.17
2018-06-12T00:48:22.435Z,14.80
2018-06-12T00:50:57.584Z,15.30
2018-06-12T00:53:32.865Z,14.20
2018-06-12T00:56:07.972Z,14.30
2018-06-12T00:58:42.459Z,14.93
2018-06-12T01:01:16.982Z,13.40
2018-06-12T01:03:51.392Z,12.17
2018-06-12T01:06:26.360Z,13.87
2018-06-12T01:09:01.566Z,14.10
2018-06-12T01:11:36.445Z,14.00
2018-06-12T01:14:11.451Z,13.67
2018-06-12T01:16:46.157Z,14.90
2018-06-12T01:19:21.292Z,13.80
2018-06-12T01:21:55.934Z,14.43
2018-06-12T01:24:30.984Z,13.70
2018-06-12T01:27:06.356Z,13.97
2018-06-12T01:29:41.293Z,14.73
2018-06-12T01:32:15.912Z,14.83
2018-06-12T01:34:50.948Z,14.93
2018-06-12T01:37:25.334Z,15.13
2018-06-12T01:40:00.177Z,15.80
2018-06-12T01:42:35.304Z,14.97
2018-06-12T01:45:10.771Z,13.63
2018-06-12T01:47:45.807Z,13.73
2018-06-12T01:50:21.028Z,14.77
2018-06-12T01:52:56.074Z,14.97
2018-06-12T01:55:31.149Z,14.13
2018-06-12T01:58:06.581Z,14.53
2018-06-12T02:00:41.680Z,15.87
2018-06-12T02:03:16.340Z,14.90
2018-06-12T02:05:50.737Z,14.40
2018-06-12T02:08:25.764Z,14.67
2018-06-12T02:11:01.313Z,15.87
2018-06-12T02:13:36.441Z,15.10
2018-06-12T02:16:11.696Z,14.97
2018-06-12T02:18:46.254Z,14.30
2018-06-12T02:21:21.313Z,14.60
2018-06-12T02:23:55.673Z,15.10
2018-06-12T02:26:30.631Z,15.60
2018-06-12T02:29:06.179Z,14.27
2018-06-12T02:31:40.785Z,15.07
2018-06-12T02:34:15.936Z,15.00
2018-06-12T02:36:50.913Z,14.87
2018-06-12T02:39:25.278Z,14.40
2018-06-12T02:42:00.225Z,14.30
2018-06-12T02:44:35.694Z,14.77
2018-06-12T02:47:10.772Z,14.77
2018-06-12T02:49:45.780Z,14.83
2018-06-12T02:52:21.309Z,14.10
2018-06-12T02:54:56.208Z,14.50
2018-06-12T02:57:30.853Z,14.37
2018-06-12T03:00:06.146Z,15.17
2018-06-12T03:02:41.416Z,14.17
2018-06-12T03:05:16.369Z,15.17
2018-06-12T03:07:51.292Z,13.67
2018-06-12T03:10:27.043Z,13.70
2018-06-12T03:13:02.168Z,12.87
2018-06-12T03:15:37.029Z,14.40
2018-06-12T03:18:11.644Z,14.37
2018-06-12T03:20:46.928Z,13.47
2018-06-12T03:23:21.986Z,12.63
2018-06-12T03:25:57.478Z,14.00
2018-06-12T03:28:31.640Z,13.60
2018-06-12T03:31:06.605Z,14.20
2018-06-12T03:33:41.077Z,13.70
2018-06-12T03:36:15.345Z,14.00
2018-06-12T03:38:50.689Z,14.40
2018-06-12T03:41:25.310Z,13.40
2018-06-12T03:44:00.849Z,12.23
2018-06-12T03:46:35.739Z,12.97
2018-06-12T03:49:11.043Z,13.80
2018-06-12T03:51:47.022Z,12.70
2018-06-12T03:54:21.306Z,13.93
2018-06-12T03:56:56.246Z,13.87
2018-06-12T03:59:30.517Z,13.87
2018-06-12T04:02:05.053Z,11.77
2018-06-12T04:04:40.485Z,11.80
2018-06-12T04:07:14.737Z,12.50
2018-06-12T04:09:49.160Z,12.70
2018-06-12T04:12:23.505Z,12.50
2018-06-12T04:14:58.547Z,12.77
2018-06-12T04:17:33.998Z,11.90
2018-06-12T04:20:08.804Z,11.50
2018-06-12T04:22:43.431Z,11.63
2018-06-12T04:25:18.740Z,12.00
2018-06-12T04:27:53.373Z,11.50
2018-06-12T04:30:28.268Z,11.27
2018-06-12T04:33:02.665Z,10.93
2018-06-12T04:35:37.732Z,10.50
2018-06-12T04:38:11.980Z,11.33
2018-06-12T04:40:47.365Z,11.50
2018-06-12T04:43:22.121Z,9.50
2018-06-12T04:45:57.652Z,10.20
2018-06-12T04:48:32.034Z,10.60
2018-06-12T04:51:07.377Z,9.63
2018-06-12T04:53:42.296Z,10.30
2018-06-12T04:56:17.396Z,9.10
2018-06-12T04:58:52.057Z,9.07
2018-06-12T05:01:27.177Z,9.20
2018-06-12T05:04:02.313Z,7.83
2018-06-12T05:06:37.034Z,7.47
2018-06-12T05:09:11.831Z,8.13
2018-06-12T05:11:46.793Z,7.90
2018-06-12T05:14:21.656Z,7.20
2018-06-12T05:16:56.652Z,8.07
2018-06-12T05:19:32.029Z,6.97
2018-06-12T05:22:07.557Z,8.17
2018-06-12T05:24:42.660Z,7.60
2018-06-12T05:27:17.760Z,7.40
2018-06-12T05:29:52.473Z,6.03
2018-06-12T05:32:27.061Z,7.90
2018-06-12T05:35:02.240Z,6.90
2018-06-12T05:37:37.332Z,5.87
2018-06-12T05:40:12.064Z,6.90
2018-06-12T05:42:46.493Z,6.90
2018-06-12T05:45:20.965Z,6.13
2018-06-12T05:47:55.416Z,6.10
2018-06-12T05:50:30.506Z,6.07
2018-06-12T05:53:04.953Z,5.57
2018-06-12T05:55:39.179Z,5.60
2018-06-12T05:58:13.976Z,6.20
2018-06-12T06:00:48.950Z,5.70
2018-06-12T06:03:23.421Z,4.90
2018-06-12T06:05:58.337Z,4.93
2018-06-12T06:08:33.452Z,5.10
2018-06-12T06:11:08.341Z,5.20
2018-06-12T06:13:43.112Z,5.30
2018-06-12T06:16:17.388Z,5.20
2018-06-12T06:18:52.759Z,5.30
2018-06-12T06:21:28.448Z,6.00
2018-06-12T06:24:03.691Z,4.87
2018-06-12T06:26:38.121Z,4.57
2018-06-12T06:29:12.816Z,4.93
2018-06-12T06:31:47.033Z,4.87
2018-06-12T06:34:21.980Z,5.60
2018-06-12T06:36:56.285Z,5.07
2018-06-12T06:39:31.143Z,5.70
2018-06-12T06:42:05.857Z,5.23
2018-06-12T06:44:40.973Z,5.47
2018-06-12T06:47:16.573Z,5.00
2018-06-12T06:49:51.289Z,4.80
2018-06-12T06:52:26.457Z,5.20
2018-06-12T06:55:01.506Z,5.10
2018-06-12T06:57:36.846Z,5.10
2018-06-12T07:00:11.924Z,5.30
2018-06-12T07:02:46.901Z,4.40
2018-06-12T07:05:21.840Z,3.40
2018-06-12T07:07:56.989Z,3.50
2018-06-12T07:10:31.428Z,3.60
2018-06-12T07:13:06.913Z,3.90
2018-06-12T07:15:42.109Z,4.03
2018-06-12T07:18:16.799Z,4.63
2018-06-12T07:20:59.013Z,4.00
2018-06-12T07:23:33.689Z,4.53
2018-06-12T07:26:07.932Z,3.90
2018-06-12T07:28:42.484Z,4.00
2018-06-12T07:31:17.029Z,4.40
2018-06-12T07:33:52.216Z,3.60
2018-06-12T07:36:27.126Z,4.43
2018-06-12T07:39:01.947Z,4.53
2018-06-12T07:41:37.165Z,5.23
2018-06-12T07:44:11.529Z,4.43
2018-06-12T07:46:46.632Z,5.00
2018-06-12T07:49:21.701Z,4.70
2018-06-12T07:51:55.908Z,4.10
2018-06-12T07:54:30.317Z,4.70
2018-06-12T07:57:05.580Z,4.43
2018-06-12T07:59:40.516Z,4.47
2018-06-12T08:02:15.681Z,3.97
2018-06-12T08:04:50.281Z,4.03
2018-06-12T08:07:25.639Z,3.40
2018-06-12T08:10:00.245Z,4.57
2018-06-12T08:12:35.273Z,5.47
2018-06-12T08:15:10.305Z,4.97
2018-06-12T08:17:44.969Z,5.60
2018-06-12T08:20:19.960Z,5.30
2018-06-12T08:22:54.996Z,5.60
2018-06-12T08:25:30.317Z,5.30
2018-06-12T08:28:05.512Z,4.20
2018-06-12T08:30:40.134Z,4.20
2018-06-12T08:33:15.513Z,3.60
2018-06-12T08:35:50.202Z,4.23
2018-06-12T08:38:24.964Z,3.87
2018-06-12T08:41:00.413Z,4.30
2018-06-12T08:43:35.017Z,3.90
2018-06-12T08:46:10.337Z,4.40
2018-06-12T08:48:45.504Z,4.07
2018-06-12T08:51:20.195Z,3.70
2018-06-12T08:53:55.018Z,3.20
2018-06-12T08:56:30.485Z,3.53
2018-06-12T08:59:05.847Z,3.90
2018-06-12T09:01:40.246Z,3.90
2018-06-12T09:04:15.821Z,3.50
2018-06-12T09:06:50.454Z,3.47
2018-06-12T09:09:25.329Z,3.83
2018-06-12T09:12:00.460Z,3.73
2018-06-12T09:14:35.156Z,3.77
2018-06-12T09:17:10.129Z,4.40
2018-06-12T09:19:45.197Z,3.90
2018-06-12T09:22:19.801Z,4.20
2018-06-12T09:24:54.205Z,3.83
2018-06-12T09:27:28.929Z,4.23
2018-06-12T09:30:04.017Z,4.50
2018-06-12T09:32:39.148Z,4.60
2018-06-12T09:35:14.141Z,4.10
2018-06-12T09:37:49.376Z,4.13
2018-06-12T09:40:23.848Z,3.83
2018-06-12T09:42:58.112Z,3.40
2018-06-12T09:45:33.141Z,4.17
2018-06-12T09:48:07.699Z,3.60
2018-06-12T09:50:42.169Z,4.17
2018-06-12T09:53:17.350Z,3.40
2018-06-12T09:55:52.214Z,3.90
2018-06-12T09:58:26.601Z,5.00
2018-06-12T10:01:06.914Z,4.27
2018-06-12T10:03:45.814Z,4.10
2018-06-12T10:06:21.204Z,4.40
2018-06-12T10:08:56.357Z,4.43
2018-06-12T10:11:31.040Z,4.20
2018-06-12T10:14:06.184Z,4.47
2018-06-12T10:16:40.996Z,3.77
2018-06-12T10:19:15.681Z,4.63
2018-06-12T10:21:51.169Z,4.53
2018-06-12T10:24:26.061Z,5.10
2018-06-12T10:27:01.542Z,5.43
2018-06-12T10:29:36.577Z,4.80
2018-06-12T10:32:11.589Z,4.50
2018-06-12T10:34:46.681Z,4.50
2018-06-12T10:37:21.192Z,4.27
2018-06-12T10:39:55.693Z,4.57
2018-06-12T10:42:30.801Z,5.50
2018-06-12T10:45:05.339Z,4.17
2018-06-12T10:47:39.745Z,4.93
2018-06-12T10:50:14.708Z,5.07
2018-06-12T10:52:49.824Z,4.63
2018-06-12T10:55:24.750Z,4.63
2018-06-12T10:57:58.991Z,4.50
2018-06-12T11:00:34.038Z,5.03
2018-06-12T11:03:08.992Z,5.00
2018-06-12T11:05:44.125Z,4.67
2018-06-12T11:08:18.665Z,5.60
2018-06-12T11:10:53.327Z,4.67
2018-06-12T11:13:28.694Z,4.93
2018-06-12T11:16:03.772Z,4.73
2018-06-12T11:18:38.501Z,5.60
2018-06-12T11:21:13.380Z,4.40
2018-06-12T11:23:48.748Z,5.50
2018-06-12T11:26:23.065Z,4.77
2018-06-12T11:28:58.309Z,4.80
2018-06-12T11:31:33.861Z,5.17
2018-06-12T11:34:08.305Z,4.50
2018-06-12T11:36:43.360Z,4.70
2018-06-12T11:39:17.810Z,4.60
2018-06-12T11:41:52.546Z,4.30
2018-06-12T11:44:26.774Z,4.90
2018-06-12T11:47:01.825Z,4.57
2018-06-12T11:49:36.485Z,4.70
2018-06-12T11:52:11.401Z,4.30
2018-06-12T11:54:46.498Z,4.40
2018-06-12T11:57:21.372Z,4.60
2018-06-12T11:59:56.305Z,4.67
2018-06-12T12:02:30.949Z,4.20
2018-06-12T12:05:05.173Z,4.20
2018-06-12T12:07:40.269Z,5.10
2018-06-12T12:10:15.767Z,3.93
2018-06-12T12:12:50.741Z,4.70
2018-06-12T12:15:25.549Z,4.83
2018-06-12T12:18:00.609Z,3.80
2018-06-12T12:20:35.257Z,3.97
2018-06-12T12:23:10.509Z,4.10
2018-06-12T12:25:45.592Z,3.60
2018-06-12T12:28:19.908Z,3.97
2018-06-12T12:30:54.593Z,3.57
2018-06-12T12:33:28.994Z,4.17
2018-06-12T12:36:04.093Z,4.27
2018-06-12T12:38:39.008Z,4.30
2018-06-12T12:41:13.881Z,3.70
2018-06-12T12:43:48.518Z,4.00
2018-06-12T12:46:23.650Z,4.50
2018-06-12T12:48:58.049Z,4.47
2018-06-12T12:51:32.608Z,4.63
2018-06-12T12:54:07.513Z,4.30
2018-06-12T12:56:42.565Z,4.07
2018-06-12T12:59:17.597Z,4.20
2018-06-12T13:01:52.604Z,4.40
2018-06-12T13:04:27.933Z,4.90
2018-06-12T13:07:02.378Z,5.20
2018-06-12T13:09:37.513Z,4.93
2018-06-12T13:12:12.164Z,4.47
2018-06-12T13:14:46.757Z,4.70
2018-06-12T13:17:21.652Z,5.30
2018-06-12T13:19:56.451Z,4.40
2018-06-12T13:22:31.477Z,5.13
2018-06-12T13:25:06.389Z,5.40
2018-06-12T13:27:40.641Z,4.90
2018-06-12T13:30:15.893Z,4.37
2018-06-12T13:32:50.845Z,4.23
2018-06-12T13:35:25.362Z,4.93
2018-06-12T13:38:00.429Z,4.20
2018-06-12T13:40:35.445Z,4.90
2018-06-12T13:43:10.592Z,4.80
2018-06-12T13:45:46.117Z,4.77
2018-06-12T13:48:20.415Z,4.33
2018-06-12T13:50:54.974Z,4.43
2018-06-12T13:53:30.039Z,4.10
2018-06-12T13:56:04.426Z,3.80
2018-06-12T13:58:39.746Z,4.03
2018-06-12T14:01:14.147Z,4.20
2018-06-12T14:03:49.280Z,4.53
2018-06-12T14:06:24.340Z,4.20
2018-06-12T14:08:59.038Z,4.60
2018-06-12T14:11:33.627Z,4.13
2018-06-12T14:14:08.845Z,3.90
2018-06-12T14:16:44.112Z,4.30
2018-06-12T14:19:18.703Z,4.20
2018-06-12T14:21:53.864Z,3.70
2018-06-12T14:24:28.269Z,4.30
2018-06-12T14:27:03.346Z,3.87
2018-06-12T14:29:37.708Z,4.60
2018-06-12T14:32:12.539Z,4.10
2018-06-12T14:34:47.585Z,3.90
2018-06-12T14:37:21.916Z,3.40
2018-06-12T14:39:57.062Z,4.20
2018-06-12T14:42:31.391Z,3.83
2018-06-12T14:45:07.113Z,4.20
2018-06-12T14:47:41.521Z,3.70
2018-06-12T14:50:16.345Z,4.33
2018-06-12T14:52:51.006Z,4.60
2018-06-12T14:55:25.324Z,4.10
2018-06-12T14:57:59.766Z,3.63
2018-06-12T15:00:34.068Z,3.87
2018-06-12T15:03:09.185Z,4.80
2018-06-12T15:05:44.565Z,4.40
2018-06-12T15:08:19.213Z,4.50
2018-06-12T15:10:53.945Z,3.77
2018-06-12T15:13:29.040Z,3.80
2018-06-12T15:16:04.161Z,4.27
2018-06-12T15:18:39.021Z,4.30
2018-06-12T15:21:14.132Z,4.00
2018-06-12T15:23:48.452Z,4.93
2018-06-12T15:26:22.993Z,5.20
2018-06-12T15:28:57.798Z,5.77
2018-06-12T15:31:31.941Z,4.77
2018-06-12T15:34:07.024Z,6.10
2018-06-12T15:36:42.381Z,5.90
2018-06-12T15:39:17.038Z,5.80
2018-06-12T15:41:52.125Z,5.80
2018-06-12T15:44:26.763Z,5.10
2018-06-12T15:47:00.969Z,4.80
2018-06-12T15:49:35.808Z,4.90
2018-06-12T15:52:10.924Z,5.20
2018-06-12T15:54:45.801Z,5.00
2018-06-12T15:57:20.116Z,5.73
2018-06-12T15:59:55.056Z,5.50
2018-06-12T16:02:30.112Z,4.60
2018-06-12T16:05:05.344Z,5.90
2018-06-12T16:07:39.751Z,5.20
2018-06-12T16:10:15.026Z,5.90
2018-06-12T16:12:49.329Z,5.93
2018-06-12T16:15:24.266Z,5.57
2018-06-12T16:17:59.085Z,5.70
2018-06-12T16:20:33.520Z,5.67
2018-06-12T16:23:07.740Z,5.70
2018-06-12T16:25:42.773Z,5.27
2018-06-12T16:28:17.177Z,4.50
2018-06-12T16:30:51.517Z,4.77
2018-06-12T16:33:26.544Z,4.43
2018-06-12T16:36:01.658Z,4.60
2018-06-12T16:38:36.568Z,4.87
2018-06-12T16:41:11.781Z,4.90
2018-06-12T16:43:46.155Z,4.47
2018-06-12T16:46:21.069Z,3.97
2018-06-12T16:48:56.242Z,4.23
2018-06-12T16:51:31.749Z,4.93
2018-06-12T16:54:07.172Z,5.60
2018-06-12T16:56:41.880Z,5.07
2018-06-12T16:59:16.967Z,4.53
2018-06-12T17:01:52.159Z,5.00
2018-06-12T17:04:26.648Z,4.20
2018-06-12T17:07:02.026Z,4.93
2018-06-12T17:09:36.936Z,4.53
2018-06-12T17:12:11.757Z,4.50
2018-06-12T17:14:46.481Z,4.77
2018-06-12T17:17:21.605Z,4.47
2018-06-12T17:19:56.401Z,5.03
2018-06-12T17:22:31.622Z,4.20
2018-06-12T17:25:06.589Z,5.10
2018-06-12T17:27:41.835Z,5.37
2018-06-12T17:30:16.565Z,4.40
2018-06-12T17:32:51.684Z,3.40
2018-06-12T17:35:26.388Z,3.93
2018-06-12T17:38:01.419Z,4.10
2018-06-12T17:40:36.543Z,3.80
2018-06-12T17:43:11.866Z,4.00
2018-06-12T17:45:46.512Z,3.40
2018-06-12T17:48:21.648Z,3.83
2018-06-12T17:50:56.688Z,4.87
2018-06-12T17:53:31.116Z,4.00
2018-06-12T17:56:06.032Z,4.37
2018-06-12T17:58:41.011Z,4.50
2018-06-12T18:01:16.389Z,4.67
2018-06-12T18:03:51.244Z,4.30
2018-06-12T18:06:25.692Z,4.47
2018-06-12T18:09:00.447Z,4.40
2018-06-12T18:11:35.700Z,4.20
2018-06-12T18:14:10.845Z,5.17
2018-06-12T18:16:47.691Z,4.70
2018-06-12T18:19:23.010Z,3.60
2018-06-12T18:21:57.909Z,4.23
2018-06-12T18:24:32.757Z,3.90
2018-06-12T18:27:07.188Z,4.70
2018-06-12T18:29:41.693Z,4.27
2018-06-12T18:32:16.816Z,4.30
2018-06-12T18:34:52.037Z,3.33
2018-06-12T18:37:26.766Z,3.77
2018-06-12T18:40:01.246Z,4.43
2018-06-12T18:42:36.422Z,4.10
2018-06-12T18:45:11.548Z,4.50
2018-06-12T18:47:46.666Z,3.60
2018-06-12T18:50:22.105Z,5.20
2018-06-12T18:52:57.344Z,4.03
2018-06-12T18:55:32.101Z,3.60
2018-06-12T18:58:07.097Z,3.83
2018-06-12T19:00:41.417Z,4.13
2018-06-12T19:03:16.483Z,3.57
2018-06-12T19:05:51.820Z,3.80
2018-06-12T19:08:26.826Z,4.23
2018-06-12T19:11:01.821Z,3.70
2018-06-12T19:13:36.041Z,3.93
2018-06-12T19:16:11.158Z,4.10
2018-06-12T19:18:46.140Z,3.73
2018-06-12T19:21:20.546Z,3.70
2018-06-12T19:23:55.469Z,4.10
2018-06-12T19:26:30.445Z,3.70
2018-06-12T19:29:04.904Z,3.67
2018-06-12T19:31:39.421Z,3.20
2018-06-12T19:34:14.209Z,3.83
2018-06-12T19:36:49.288Z,3.40
2018-06-12T19:39:23.800Z,3.57
2018-06-12T19:41:59.260Z,3.13
2018-06-12T19:44:34.657Z,3.17
2018-06-12T19:47:10.361Z,3.17
2018-06-12T19:49:45.365Z,3.67
2018-06-12T19:52:20.381Z,2.77
2018-06-12T19:54:55.752Z,3.43
2018-06-12T19:57:30.041Z,3.20
2018-06-12T20:00:05.173Z,3.20
2018-06-12T20:02:40.240Z,3.03
2018-06-12T20:05:14.556Z,2.70
2018-06-12T20:07:49.309Z,3.07
2018-06-12T20:10:24.872Z,3.17
2018-06-12T20:12:59.672Z,3.23
2018-06-12T20:15:34.792Z,3.27
2018-06-12T20:18:09.822Z,3.63
2018-06-12T20:20:45.249Z,3.13
2018-06-12T20:23:20.046Z,3.47
2018-06-12T20:25:54.636Z,3.50
2018-06-12T20:28:29.098Z,3.67
2018-06-12T20:31:04.401Z,3.93
2018-06-12T20:33:39.237Z,4.30
2018-06-12T20:36:14.321Z,3.80
2018-06-12T20:38:49.581Z,3.53
2018-06-12T20:41:24.593Z,3.07
2018-06-12T20:43:59.081Z,3.73
2018-06-12T20:46:34.361Z,4.33
2018-06-12T20:49:09.580Z,3.53
2018-06-12T20:51:44.713Z,4.37
2018-06-12T20:54:19.617Z,4.27
2018-06-12T20:56:53.900Z,3.80
2018-06-12T20:59:28.713Z,3.53
2018-06-12T21:02:03.465Z,3.77
2018-06-12T21:04:38.584Z,4.03
2018-06-12T21:07:13.693Z,4.00
2018-06-12T21:09:48.213Z,4.10
2018-06-12T21:12:23.381Z,3.73
2018-06-12T21:14:59.149Z,3.60
2018-06-12T21:17:34.048Z,3.43
2018-06-12T21:20:08.657Z,3.60
2018-06-12T21:22:42.851Z,3.57
2018-06-12T21:25:17.616Z,3.70
2018-06-12T21:27:51.806Z,3.37
2018-06-12T21:30:26.845Z,3.73
2018-06-12T21:33:01.774Z,3.40
2018-06-12T21:35:37.573Z,3.30
2018-06-12T21:38:12.061Z,3.73
2018-06-12T21:40:47.195Z,2.80
2018-06-12T21:45:57.961Z,3.03
2018-06-12T21:48:33.301Z,2.87
2018-06-12T21:51:07.776Z,3.17
2018-06-12T21:53:42.609Z,3.00
2018-06-12T21:56:17.525Z,3.43
2018-06-12T21:58:52.453Z,2.93
2018-06-12T22:01:27.477Z,3.10
2018-06-12T22:04:02.238Z,2.70
2018-06-12T22:06:37.154Z,3.17
2018-06-12T22:09:11.577Z,3.13
2018-06-12T22:11:46.284Z,3.10
2018-06-12T22:14:20.984Z,2.70
2018-06-12T22:16:56.404Z,3.27
2018-06-12T22:19:31.134Z,3.10
2018-06-12T22:22:05.957Z,3.10
2018-06-12T22:24:40.865Z,3.20
2018-06-12T22:27:15.847Z,3.00
2018-06-12T22:29:50.758Z,2.27
2018-06-12T22:32:25.527Z,2.77
2018-06-12T22:35:00.501Z,3.07
2018-06-12T22:37:35.221Z,2.80
2018-06-12T22:40:09.898Z,3.37
2018-06-12T22:42:44.439Z,3.07
2018-06-12T22:45:19.255Z,2.63
2018-06-12T22:47:54.251Z,3.10
2018-06-12T22:50:28.986Z,3.07
2018-06-12T22:53:03.439Z,3.03
2018-06-12T22:55:38.575Z,3.33
2018-06-12T22:58:12.962Z,3.50
2018-06-12T23:00:47.816Z,3.20
2018-06-12T23:03:22.766Z,3.27
2018-06-12T23:05:57.570Z,4.03
2018-06-12T23:08:32.165Z,3.50
2018-06-12T23:11:07.478Z,3.07
2018-06-12T23:13:41.742Z,3.30
2018-06-12T23:16:16.962Z,3.60
2018-06-12T23:18:51.424Z,3.33
2018-06-12T23:21:51.737Z,3.37
2018-06-12T23:24:26.750Z,2.90
2018-06-12T23:27:01.407Z,4.17
2018-06-12T23:29:36.003Z,3.90
2018-06-12T23:32:10.723Z,3.63
2018-06-12T23:34:45.395Z,4.23
2018-06-12T23:37:20.198Z,4.10
2018-06-12T23:39:55.026Z,3.47
2018-06-12T23:42:29.923Z,4.20
2018-06-12T23:45:04.606Z,3.80
2018-06-12T23:47:39.413Z,3.27
2018-06-12T23:50:14.182Z,3.00
2018-06-12T23:52:48.987Z,3.27
2018-06-12T23:55:23.707Z,3.40
2018-06-12T23:57:58.438Z,3.57
